sensor_id;sensor_type;location;lat;lon;timestamp;pressure;altitude;pressure_sealevel;temperature;humidity
40315;BME280;26021;45.640;11.302;2022-10-31T00:01:20;99352.56;;;13.60;100.00
40315;BME280;26021;45.640;11.302;2022-10-31T00:03:45;99344.94;;;13.49;100.00
40315;BME280;26021;45.640;11.302;2022-10-31T00:06:11;99296.28;;;13.06;100.00
40315;BME280;26021;45.640;11.302;2022-10-31T00:08:57;99310.34;;;13.08;100.00
40315;BME280;26021;45.640;11.302;2022-10-31T00:11:23;99338.03;;;13.31;100.00
40315;BME280;26021;45.640;11.302;2022-10-31T00:13:49;99353.66;;;13.51;100.00
40315;BME280;26021;45.640;11.302;2022-10-31T00:16:16;99297.94;;;13.07;100.00
40315;BME280;26021;45.640;11.302;2022-10-31T00:18:41;99361.44;;;13.46;100.00
40315;BME280;26021;45.640;11.302;2022-10-31T00:21:07;99355.78;;;13.41;100.00
40315;BME280;26021;45.640;11.302;2022-10-31T00:23:32;99207.59;;;12.39;100.00
40315;BME280;26021;45.640;11.302;2022-10-31T00:26:02;99357.19;;;13.51;100.00
40315;BME280;26021;45.640;11.302;2022-10-31T00:28:27;99357.28;;;13.73;100.00
40315;BME280;26021;45.640;11.302;2022-10-31T00:30:53;99362.47;;;13.59;100.00
40315;BME280;26021;45.640;11.302;2022-10-31T00:33:18;99345.13;;;13.47;100.00
40315;BME280;26021;45.640;11.302;2022-10-31T00:35:49;99354.97;;;13.55;100.00
40315;BME280;26021;45.640;11.302;2022-10-31T00:38:15;99281.50;;;12.87;100.00
40315;BME280;26021;45.640;11.302;2022-10-31T00:40:40;99350.41;;;13.41;100.00
40315;BME280;26021;45.640;11.302;2022-10-31T00:43:06;99348.03;;;13.38;100.00
40315;BME280;26021;45.640;11.302;2022-10-31T00:45:31;99344.47;;;13.45;100.00
40315;BME280;26021;45.640;11.302;2022-10-31T00:47:56;99310.16;;;13.32;100.00
40315;BME280;26021;45.640;11.302;2022-10-31T00:50:22;99351.34;;;13.48;100.00
40315;BME280;26021;45.640;11.302;2022-10-31T00:52:47;99336.31;;;13.39;100.00
40315;BME280;26021;45.640;11.302;2022-10-31T00:55:13;99354.81;;;13.33;100.00
40315;BME280;26021;45.640;11.302;2022-10-31T00:57:38;99350.22;;;13.42;100.00
40315;BME280;26021;45.640;11.302;2022-10-31T01:00:04;99352.28;;;13.55;100.00
40315;BME280;26021;45.640;11.302;2022-10-31T01:02:29;99352.81;;;13.50;100.00
40315;BME280;26021;45.640;11.302;2022-10-31T01:04:55;99341.84;;;13.37;100.00
40315;BME280;26021;45.640;11.302;2022-10-31T01:07:20;99345.31;;;13.46;100.00
40315;BME280;26021;45.640;11.302;2022-10-31T01:09:45;99343.63;;;13.45;100.00
40315;BME280;26021;45.640;11.302;2022-10-31T01:12:11;99323.03;;;13.37;100.00
40315;BME280;26021;45.640;11.302;2022-10-31T01:14:36;99337.97;;;13.40;100.00
40315;BME280;26021;45.640;11.302;2022-10-31T01:17:02;99316.97;;;13.20;100.00
40315;BME280;26021;45.640;11.302;2022-10-31T01:19:27;99337.63;;;13.20;100.00
40315;BME280;26021;45.640;11.302;2022-10-31T01:21:54;99336.63;;;13.21;100.00
40315;BME280;26021;45.640;11.302;2022-10-31T01:24:20;99340.53;;;13.33;100.00
40315;BME280;26021;45.640;11.302;2022-10-31T01:26:45;99334.41;;;13.24;100.00
40315;BME280;26021;45.640;11.302;2022-10-31T01:29:11;99338.09;;;13.23;100.00
40315;BME280;26021;45.640;11.302;2022-10-31T01:31:38;99264.53;;;12.72;100.00
40315;BME280;26021;45.640;11.302;2022-10-31T01:34:04;99320.81;;;13.03;100.00
40315;BME280;26021;45.640;11.302;2022-10-31T01:36:35;99344.13;;;13.25;100.00
40315;BME280;26021;45.640;11.302;2022-10-31T01:39:04;99322.19;;;12.99;100.00
40315;BME280;26021;45.640;11.302;2022-10-31T01:41:32;99325.44;;;13.09;100.00
40315;BME280;26021;45.640;11.302;2022-10-31T01:44:03;99130.53;;;11.87;100.00
40315;BME280;26021;45.640;11.302;2022-10-31T01:46:32;99330.88;;;13.24;100.00
40315;BME280;26021;45.640;11.302;2022-10-31T01:49:02;99327.06;;;12.95;100.00
40315;BME280;26021;45.640;11.302;2022-10-31T01:51:33;99326.47;;;13.08;100.00
40315;BME280;26021;45.640;11.302;2022-10-31T01:54:04;99328.50;;;13.06;100.00
40315;BME280;26021;45.640;11.302;2022-10-31T01:56:32;99151.97;;;11.87;100.00
40315;BME280;26021;45.640;11.302;2022-10-31T01:59:01;99313.59;;;13.03;100.00
40315;BME280;26021;45.640;11.302;2022-10-31T02:01:30;99326.66;;;13.07;100.00
40315;BME280;26021;45.640;11.302;2022-10-31T02:03:55;99333.31;;;13.11;100.00
40315;BME280;26021;45.640;11.302;2022-10-31T02:06:29;99329.88;;;13.25;100.00
40315;BME280;26021;45.640;11.302;2022-10-31T02:08:59;99331.47;;;13.11;100.00
40315;BME280;26021;45.640;11.302;2022-10-31T02:11:28;99334.78;;;12.98;100.00
40315;BME280;26021;45.640;11.302;2022-10-31T02:13:54;99325.09;;;13.12;100.00
40315;BME280;26021;45.640;11.302;2022-10-31T02:16:19;99324.69;;;13.00;100.00
40315;BME280;26021;45.640;11.302;2022-10-31T02:18:45;99320.38;;;13.14;100.00
40315;BME280;26021;45.640;11.302;2022-10-31T02:21:19;99313.47;;;13.20;100.00
40315;BME280;26021;45.640;11.302;2022-10-31T02:26:27;99308.69;;;13.07;100.00
40315;BME280;26021;45.640;11.302;2022-10-31T02:29:16;99313.59;;;13.03;100.00
40315;BME280;26021;45.640;11.302;2022-10-31T02:31:54;99308.22;;;13.03;100.00
40315;BME280;26021;45.640;11.302;2022-10-31T02:34:41;99205.84;;;12.46;100.00
40315;BME280;26021;45.640;11.302;2022-10-31T02:37:17;99315.13;;;13.21;100.00
40315;BME280;26021;45.640;11.302;2022-10-31T02:40:17;99314.31;;;12.97;100.00
40315;BME280;26021;45.640;11.302;2022-10-31T02:43:27;99317.16;;;12.96;100.00
40315;BME280;26021;45.640;11.302;2022-10-31T02:45:59;99309.63;;;12.77;100.00
40315;BME280;26021;45.640;11.302;2022-10-31T02:48:28;99319.28;;;12.86;100.00
40315;BME280;26021;45.640;11.302;2022-10-31T02:51:00;99307.94;;;12.76;100.00
40315;BME280;26021;45.640;11.302;2022-10-31T02:53:31;99297.50;;;12.81;100.00
40315;BME280;26021;45.640;11.302;2022-10-31T02:58:26;99313.09;;;13.00;100.00
40315;BME280;26021;45.640;11.302;2022-10-31T03:09:46;99309.63;;;12.77;100.00
40315;BME280;26021;45.640;11.302;2022-10-31T03:15:03;99310.59;;;12.98;100.00
40315;BME280;26021;45.640;11.302;2022-10-31T03:17:34;99313.25;;;12.84;100.00
40315;BME280;26021;45.640;11.302;2022-10-31T03:20:03;99295.28;;;12.61;100.00
40315;BME280;26021;45.640;11.302;2022-10-31T03:22:31;99309.72;;;12.83;100.00
40315;BME280;26021;45.640;11.302;2022-10-31T03:25:00;99312.13;;;12.78;100.00
40315;BME280;26021;45.640;11.302;2022-10-31T03:27:27;99311.22;;;12.86;100.00
40315;BME280;26021;45.640;11.302;2022-10-31T03:29:57;99268.03;;;12.50;100.00
40315;BME280;26021;45.640;11.302;2022-10-31T03:32:29;99315.16;;;12.75;100.00
40315;BME280;26021;45.640;11.302;2022-10-31T03:34:59;99260.94;;;12.34;100.00
40315;BME280;26021;45.640;11.302;2022-10-31T03:37:27;99286.38;;;12.61;100.00
40315;BME280;26021;45.640;11.302;2022-10-31T03:39:55;99322.03;;;12.78;100.00
40315;BME280;26021;45.640;11.302;2022-10-31T03:42:25;99275.00;;;12.59;100.00
40315;BME280;26021;45.640;11.302;2022-10-31T03:44:58;99320.09;;;12.86;100.00
40315;BME280;26021;45.640;11.302;2022-10-31T03:47:25;99313.06;;;12.85;100.00
40315;BME280;26021;45.640;11.302;2022-10-31T03:49:51;99237.44;;;12.36;100.00
40315;BME280;26021;45.640;11.302;2022-10-31T03:55:06;99314.44;;;12.81;100.00
40315;BME280;26021;45.640;11.302;2022-10-31T04:00:06;99321.91;;;12.71;100.00
40315;BME280;26021;45.640;11.302;2022-10-31T04:02:34;99322.81;;;12.55;100.00
40315;BME280;26021;45.640;11.302;2022-10-31T04:05:04;99266.00;;;12.29;100.00
40315;BME280;26021;45.640;11.302;2022-10-31T04:07:36;99327.47;;;12.38;100.00
40315;BME280;26021;45.640;11.302;2022-10-31T04:10:07;99328.25;;;12.47;100.00
40315;BME280;26021;45.640;11.302;2022-10-31T04:12:35;99248.03;;;12.06;100.00
40315;BME280;26021;45.640;11.302;2022-10-31T04:15:05;99326.81;;;12.59;100.00
40315;BME280;26021;45.640;11.302;2022-10-31T04:17:34;99300.28;;;12.41;100.00
40315;BME280;26021;45.640;11.302;2022-10-31T04:20:03;99283.53;;;12.39;100.00
40315;BME280;26021;45.640;11.302;2022-10-31T04:22:29;99321.25;;;12.69;100.00
40315;BME280;26021;45.640;11.302;2022-10-31T04:24:54;99328.94;;;12.72;100.00
40315;BME280;26021;45.640;11.302;2022-10-31T04:27:20;99286.31;;;12.23;100.00
40315;BME280;26021;45.640;11.302;2022-10-31T04:29:45;99332.47;;;12.41;100.00
40315;BME280;26021;45.640;11.302;2022-10-31T04:32:10;99328.25;;;12.47;100.00
40315;BME280;26021;45.640;11.302;2022-10-31T04:34:36;99336.81;;;12.43;100.00
40315;BME280;26021;45.640;11.302;2022-10-31T04:37:01;99328.84;;;12.57;100.00
40315;BME280;26021;45.640;11.302;2022-10-31T04:39:27;99335.81;;;12.44;100.00
40315;BME280;26021;45.640;11.302;2022-10-31T04:41:52;99335.97;;;12.42;100.00
40315;BME280;26021;45.640;11.302;2022-10-31T04:44:17;99324.00;;;12.53;100.00
40315;BME280;26021;45.640;11.302;2022-10-31T04:46:43;99332.59;;;12.48;100.00
40315;BME280;26021;45.640;11.302;2022-10-31T04:49:08;99331.00;;;12.62;100.00
40315;BME280;26021;45.640;11.302;2022-10-31T04:51:34;99334.50;;;12.62;100.00
40315;BME280;26021;45.640;11.302;2022-10-31T04:53:59;99271.88;;;12.24;100.00
40315;BME280;26021;45.640;11.302;2022-10-31T04:56:24;99336.16;;;12.40;100.00
40315;BME280;26021;45.640;11.302;2022-10-31T04:58:50;99295.66;;;12.27;100.00
40315;BME280;26021;45.640;11.302;2022-10-31T05:01:15;99332.78;;;12.47;100.00
40315;BME280;26021;45.640;11.302;2022-10-31T05:03:41;99340.63;;;12.48;100.00
40315;BME280;26021;45.640;11.302;2022-10-31T05:06:07;99320.25;;;12.39;100.00
40315;BME280;26021;45.640;11.302;2022-10-31T05:08:32;99334.38;;;12.56;100.00
40315;BME280;26021;45.640;11.302;2022-10-31T05:11:01;99335.34;;;12.63;100.00
40315;BME280;26021;45.640;11.302;2022-10-31T05:13:27;99337.47;;;12.45;100.00
40315;BME280;26021;45.640;11.302;2022-10-31T05:15:53;99327.94;;;12.42;100.00
40315;BME280;26021;45.640;11.302;2022-10-31T05:18:18;99338.44;;;12.52;100.00
40315;BME280;26021;45.640;11.302;2022-10-31T05:20:44;99335.75;;;12.52;100.00
40315;BME280;26021;45.640;11.302;2022-10-31T05:23:09;99305.34;;;12.36;100.00
40315;BME280;26021;45.640;11.302;2022-10-31T05:25:35;99316.59;;;12.32;100.00
40315;BME280;26021;45.640;11.302;2022-10-31T05:28:00;99340.34;;;12.43;100.00
40315;BME280;26021;45.640;11.302;2022-10-31T05:30:28;99318.22;;;12.41;100.00
40315;BME280;26021;45.640;11.302;2022-10-31T05:32:54;99324.66;;;12.32;100.00
40315;BME280;26021;45.640;11.302;2022-10-31T05:35:25;99321.97;;;12.32;100.00
40315;BME280;26021;45.640;11.302;2022-10-31T05:37:51;99331.47;;;12.12;100.00
40315;BME280;26021;45.640;11.302;2022-10-31T05:40:18;99330.06;;;12.24;100.00
40315;BME280;26021;45.640;11.302;2022-10-31T05:42:45;99330.19;;;12.30;100.00
40315;BME280;26021;45.640;11.302;2022-10-31T05:45:15;99333.13;;;12.13;100.00
40315;BME280;26021;45.640;11.302;2022-10-31T05:47:41;99287.63;;;11.96;100.00
40315;BME280;26021;45.640;11.302;2022-10-31T05:50:08;99292.59;;;12.07;100.00
40315;BME280;26021;45.640;11.302;2022-10-31T05:52:34;99333.88;;;12.29;100.00
40315;BME280;26021;45.640;11.302;2022-10-31T05:55:00;99332.38;;;12.27;100.00
40315;BME280;26021;45.640;11.302;2022-10-31T05:57:25;99337.94;;;12.25;100.00
40315;BME280;26021;45.640;11.302;2022-10-31T05:59:51;99340.91;;;12.30;100.00
40315;BME280;26021;45.640;11.302;2022-10-31T06:02:19;99338.22;;;12.30;100.00
40315;BME280;26021;45.640;11.302;2022-10-31T06:04:44;99336.28;;;12.16;100.00
40315;BME280;26021;45.640;11.302;2022-10-31T06:07:10;99331.19;;;11.98;100.00
40315;BME280;26021;45.640;11.302;2022-10-31T06:09:35;99340.59;;;12.25;100.00
40315;BME280;26021;45.640;11.302;2022-10-31T06:12:00;99285.13;;;11.87;100.00
40315;BME280;26021;45.640;11.302;2022-10-31T06:14:26;99320.25;;;12.39;100.00
40315;BME280;26021;45.640;11.302;2022-10-31T06:16:51;99349.56;;;12.40;100.00
40315;BME280;26021;45.640;11.302;2022-10-31T06:19:17;99272.56;;;11.95;100.00
40315;BME280;26021;45.640;11.302;2022-10-31T06:21:42;99295.94;;;12.09;100.00
40315;BME280;26021;45.640;11.302;2022-10-31T06:24:07;99351.84;;;12.52;100.00
40315;BME280;26021;45.640;11.302;2022-10-31T06:26:33;99325.53;;;12.24;100.00
40315;BME280;26021;45.640;11.302;2022-10-31T06:28:58;99347.19;;;12.46;100.00
40315;BME280;26021;45.640;11.302;2022-10-31T06:31:24;99353.03;;;12.49;100.00
40315;BME280;26021;45.640;11.302;2022-10-31T06:33:49;99358.97;;;12.36;100.00
40315;BME280;26021;45.640;11.302;2022-10-31T06:36:14;99361.81;;;12.43;100.00
40315;BME280;26021;45.640;11.302;2022-10-31T06:38:40;99349.56;;;12.40;100.00
40315;BME280;26021;45.640;11.302;2022-10-31T06:41:06;99296.34;;;12.29;100.00
40315;BME280;26021;45.640;11.302;2022-10-31T06:43:32;99315.84;;;12.46;100.00
40315;BME280;26021;45.640;11.302;2022-10-31T06:45:57;99364.19;;;12.92;100.00
40315;BME280;26021;45.640;11.302;2022-10-31T06:48:26;99367.78;;;12.84;100.00
40315;BME280;26021;45.640;11.302;2022-10-31T06:50:52;99296.09;;;12.62;100.00
40315;BME280;26021;45.640;11.302;2022-10-31T06:53:17;99367.41;;;12.87;100.00
40315;BME280;26021;45.640;11.302;2022-10-31T06:55:43;99366.38;;;13.11;100.00
40315;BME280;26021;45.640;11.302;2022-10-31T06:58:09;99310.75;;;12.82;100.00
40315;BME280;26021;45.640;11.302;2022-10-31T07:00:35;99369.91;;;13.34;100.00
40315;BME280;26021;45.640;11.302;2022-10-31T07:03:09;99373.38;;;13.43;100.00
40315;BME280;26021;45.640;11.302;2022-10-31T07:05:34;99372.19;;;13.60;100.00
40315;BME280;26021;45.640;11.302;2022-10-31T07:08:02;99354.56;;;13.43;100.00
40315;BME280;26021;45.640;11.302;2022-10-31T07:10:30;99377.75;;;13.59;100.00
40315;BME280;26021;45.640;11.302;2022-10-31T07:12:57;99368.41;;;13.70;100.00
40315;BME280;26021;45.640;11.302;2022-10-31T07:15:24;99377.22;;;13.93;100.00
40315;BME280;26021;45.640;11.302;2022-10-31T07:17:50;99379.06;;;14.07;100.00
40315;BME280;26021;45.640;11.302;2022-10-31T07:20:16;99379.09;;;14.22;100.00
40315;BME280;26021;45.640;11.302;2022-10-31T07:22:41;99389.00;;;14.36;100.00
40315;BME280;26021;45.640;11.302;2022-10-31T07:25:07;99383.72;;;14.43;100.00
40315;BME280;26021;45.640;11.302;2022-10-31T07:27:40;99395.56;;;14.63;100.00
40315;BME280;26021;45.640;11.302;2022-10-31T07:30:07;99304.47;;;14.30;100.00
40315;BME280;26021;45.640;11.302;2022-10-31T07:32:48;99390.75;;;14.94;100.00
40315;BME280;26021;45.640;11.302;2022-10-31T07:35:16;99395.88;;;15.11;100.00
40315;BME280;26021;45.640;11.302;2022-10-31T07:37:42;99345.53;;;15.11;100.00
40315;BME280;26021;45.640;11.302;2022-10-31T07:40:08;99391.91;;;15.56;100.00
40315;BME280;26021;45.640;11.302;2022-10-31T07:42:38;99347.72;;;15.50;100.00
40315;BME280;26021;45.640;11.302;2022-10-31T07:45:05;99396.94;;;15.80;100.00
40315;BME280;26021;45.640;11.302;2022-10-31T07:47:40;99372.13;;;15.98;100.00
40315;BME280;26021;45.640;11.302;2022-10-31T07:50:07;99396.72;;;16.16;100.00
40315;BME280;26021;45.640;11.302;2022-10-31T07:52:33;99390.63;;;16.36;100.00
40315;BME280;26021;45.640;11.302;2022-10-31T07:54:59;99397.13;;;16.55;100.00
40315;BME280;26021;45.640;11.302;2022-10-31T07:57:24;99398.09;;;16.81;100.00
40315;BME280;26021;45.640;11.302;2022-10-31T07:59:50;99402.03;;;16.79;100.00
40315;BME280;26021;45.640;11.302;2022-10-31T08:02:15;99403.53;;;16.95;100.00
40315;BME280;26021;45.640;11.302;2022-10-31T08:04:40;99369.44;;;16.94;100.00
40315;BME280;26021;45.640;11.302;2022-10-31T08:07:06;99400.69;;;17.16;100.00
40315;BME280;26021;45.640;11.302;2022-10-31T08:09:31;99212.00;;;16.26;100.00
40315;BME280;26021;45.640;11.302;2022-10-31T08:11:57;99399.44;;;17.38;100.00
40315;BME280;26021;45.640;11.302;2022-10-31T08:14:22;99402.16;;;17.38;100.00
40315;BME280;26021;45.640;11.302;2022-10-31T08:16:47;99374.28;;;17.44;100.00
40315;BME280;26021;45.640;11.302;2022-10-31T08:19:13;99388.84;;;17.57;100.00
40315;BME280;26021;45.640;11.302;2022-10-31T08:21:38;99404.66;;;17.60;100.00
40315;BME280;26021;45.640;11.302;2022-10-31T08:24:04;99345.38;;;17.25;100.00
40315;BME280;26021;45.640;11.302;2022-10-31T08:26:30;99404.69;;;17.73;100.00
40315;BME280;26021;45.640;11.302;2022-10-31T08:28:56;99393.22;;;17.71;100.00
40315;BME280;26021;45.640;11.302;2022-10-31T08:31:21;99399.88;;;18.01;100.00
40315;BME280;26021;45.640;11.302;2022-10-31T08:33:48;99398.41;;;18.05;100.00
40315;BME280;26021;45.640;11.302;2022-10-31T08:36:14;99398.38;;;18.19;100.00
40315;BME280;26021;45.640;11.302;2022-10-31T08:38:39;99400.69;;;18.08;100.00
40315;BME280;26021;45.640;11.302;2022-10-31T08:41:04;99353.66;;;17.83;100.00
40315;BME280;26021;45.640;11.302;2022-10-31T08:43:32;99375.66;;;18.20;100.00
40315;BME280;26021;45.640;11.302;2022-10-31T08:45:58;99370.22;;;18.26;100.00
40315;BME280;26021;45.640;11.302;2022-10-31T08:48:23;99403.88;;;18.50;100.00
40315;BME280;26021;45.640;11.302;2022-10-31T08:50:48;99397.63;;;18.63;100.00
40315;BME280;26021;45.640;11.302;2022-10-31T08:53:18;99234.25;;;17.73;100.00
40315;BME280;26021;45.640;11.302;2022-10-31T08:55:45;99401.16;;;18.70;100.00
40315;BME280;26021;45.640;11.302;2022-10-31T08:58:13;99403.41;;;18.80;100.00
40315;BME280;26021;45.640;11.302;2022-10-31T09:00:39;99411.84;;;18.96;100.00
40315;BME280;26021;45.640;11.302;2022-10-31T09:03:08;99401.56;;;19.05;100.00
40315;BME280;26021;45.640;11.302;2022-10-31T09:05:34;99377.63;;;19.02;100.00
40315;BME280;26021;45.640;11.302;2022-10-31T09:08:01;99407.91;;;19.24;100.00
40315;BME280;26021;45.640;11.302;2022-10-31T09:10:28;99395.66;;;19.15;100.00
40315;BME280;26021;45.640;11.302;2022-10-31T09:12:58;99401.63;;;19.30;100.00
40315;BME280;26021;45.640;11.302;2022-10-31T09:15:25;99403.72;;;19.28;100.00
40315;BME280;26021;45.640;11.302;2022-10-31T09:17:50;99359.03;;;19.05;100.00
40315;BME280;26021;45.640;11.302;2022-10-31T09:20:16;99329.53;;;18.91;100.00
40315;BME280;26021;45.640;11.302;2022-10-31T09:22:41;99404.53;;;19.28;100.00
40315;BME280;26021;45.640;11.302;2022-10-31T09:25:07;99387.53;;;19.15;98.76
40315;BME280;26021;45.640;11.302;2022-10-31T09:27:33;99384.28;;;19.31;96.21
40315;BME280;26021;45.640;11.302;2022-10-31T09:29:58;99405.03;;;19.50;96.36
40315;BME280;26021;45.640;11.302;2022-10-31T09:32:23;99394.25;;;19.68;94.31
40315;BME280;26021;45.640;11.302;2022-10-31T09:34:49;99394.72;;;19.65;93.63
40315;BME280;26021;45.640;11.302;2022-10-31T09:37:14;99340.72;;;19.32;94.19
40315;BME280;26021;45.640;11.302;2022-10-31T09:39:40;99400.47;;;19.76;92.98
40315;BME280;26021;45.640;11.302;2022-10-31T09:50:48;99346.03;;;19.71;92.76
40315;BME280;26021;45.640;11.302;2022-10-31T09:53:41;99390.97;;;20.10;92.86
40315;BME280;26021;45.640;11.302;2022-10-31T09:56:12;99380.94;;;20.10;91.28
40315;BME280;26021;45.640;11.302;2022-10-31T09:58:45;99335.72;;;19.97;90.15
40315;BME280;26021;45.640;11.302;2022-10-31T10:06:46;99393.78;;;20.40;89.78
40315;BME280;26021;45.640;11.302;2022-10-31T10:09:13;99386.44;;;20.58;90.09
40315;BME280;26021;45.640;11.302;2022-10-31T10:19:34;99380.00;;;20.89;92.07
40315;BME280;26021;45.640;11.302;2022-10-31T10:25:22;99373.41;;;20.97;92.11
40315;BME280;26021;45.640;11.302;2022-10-31T10:28:10;99381.13;;;21.12;93.47
40315;BME280;26021;45.640;11.302;2022-10-31T10:30:43;99328.00;;;20.98;92.08
40315;BME280;26021;45.640;11.302;2022-10-31T10:33:32;99349.75;;;20.98;93.25
40315;BME280;26021;45.640;11.302;2022-10-31T10:36:00;99367.66;;;21.17;96.29
40315;BME280;26021;45.640;11.302;2022-10-31T10:41:17;99360.25;;;21.24;97.73
40315;BME280;26021;45.640;11.302;2022-10-31T10:43:42;99302.66;;;20.85;98.18
40315;BME280;26021;45.640;11.302;2022-10-31T10:52:04;99359.69;;;21.45;97.70
40315;BME280;26021;45.640;11.302;2022-10-31T10:59:48;99226.78;;;20.96;95.42
40315;BME280;26021;45.640;11.302;2022-10-31T11:02:19;99349.91;;;21.91;94.58
40315;BME280;26021;45.640;11.302;2022-10-31T11:04:50;99346.13;;;21.92;93.27
40315;BME280;26021;45.640;11.302;2022-10-31T11:07:16;99342.34;;;22.05;94.19
40315;BME280;26021;45.640;11.302;2022-10-31T11:09:41;99342.44;;;21.98;88.88
40315;BME280;26021;45.640;11.302;2022-10-31T11:12:24;99338.63;;;22.23;87.57
40315;BME280;26021;45.640;11.302;2022-10-31T11:14:54;99323.22;;;22.28;85.35
40315;BME280;26021;45.640;11.302;2022-10-31T11:17:33;99297.50;;;22.24;83.82
40315;BME280;26021;45.640;11.302;2022-10-31T11:20:04;99314.34;;;22.61;82.79
40315;BME280;26021;45.640;11.302;2022-10-31T11:22:30;99321.91;;;22.71;83.53
40315;BME280;26021;45.640;11.302;2022-10-31T11:24:56;99287.09;;;22.61;83.09
40315;BME280;26021;45.640;11.302;2022-10-31T11:27:23;99310.06;;;22.65;83.02
40315;BME280;26021;45.640;11.302;2022-10-31T11:29:49;99321.41;;;22.74;84.34
40315;BME280;26021;45.640;11.302;2022-10-31T11:32:19;99300.63;;;22.56;84.65
40315;BME280;26021;45.640;11.302;2022-10-31T11:34:47;99278.81;;;22.56;85.01
40315;BME280;26021;45.640;11.302;2022-10-31T11:37:19;99322.13;;;22.81;87.61
40315;BME280;26021;45.640;11.302;2022-10-31T11:39:55;99293.41;;;22.78;87.30
40315;BME280;26021;45.640;11.302;2022-10-31T11:42:23;99325.28;;;22.90;86.17
40315;BME280;26021;45.640;11.302;2022-10-31T11:44:51;99322.53;;;22.90;86.06
40315;BME280;26021;45.640;11.302;2022-10-31T11:47:17;99234.03;;;22.24;84.36
40315;BME280;26021;45.640;11.302;2022-10-31T11:49:46;99230.19;;;21.96;85.05
40315;BME280;26021;45.640;11.302;2022-10-31T11:54:53;99153.13;;;21.55;83.73
40315;BME280;26021;45.640;11.302;2022-10-31T11:57:31;99294.94;;;22.58;84.70
40315;BME280;26021;45.640;11.302;2022-10-31T11:59:59;99248.31;;;22.42;85.71
40315;BME280;26021;45.640;11.302;2022-10-31T12:02:25;99263.81;;;22.70;85.46
40315;BME280;26021;45.640;11.302;2022-10-31T12:05:02;99288.78;;;22.79;84.78
40315;BME280;26021;45.640;11.302;2022-10-31T12:07:29;99305.44;;;22.94;82.15
40315;BME280;26021;45.640;11.302;2022-10-31T12:09:55;99297.41;;;22.88;82.52
40315;BME280;26021;45.640;11.302;2022-10-31T12:12:45;99299.38;;;23.04;81.42
40315;BME280;26021;45.640;11.302;2022-10-31T12:15:31;99297.59;;;22.98;82.99
40315;BME280;26021;45.640;11.302;2022-10-31T12:18:01;99289.59;;;23.08;83.24
40315;BME280;26021;45.640;11.302;2022-10-31T12:28:45;99286.50;;;22.88;86.47
40315;BME280;26021;45.640;11.302;2022-10-31T12:50:42;99261.81;;;23.44;88.81
40315;BME280;26021;45.640;11.302;2022-10-31T12:59:43;99252.22;;;23.59;82.39
40315;BME280;26021;45.640;11.302;2022-10-31T13:02:26;99253.28;;;23.41;80.65
40315;BME280;26021;45.640;11.302;2022-10-31T13:05:03;99252.81;;;23.27;80.05
40315;BME280;26021;45.640;11.302;2022-10-31T13:07:37;99201.47;;;22.91;82.73
40315;BME280;26021;45.640;11.302;2022-10-31T13:10:15;99244.13;;;23.30;80.26
40315;BME280;26021;45.640;11.302;2022-10-31T13:12:42;99212.56;;;23.18;80.67
40315;BME280;26021;45.640;11.302;2022-10-31T13:15:24;99238.22;;;23.55;81.77
40315;BME280;26021;45.640;11.302;2022-10-31T13:18:12;99243.25;;;23.63;81.23
40315;BME280;26021;45.640;11.302;2022-10-31T13:20:43;99241.69;;;23.51;81.18
40315;BME280;26021;45.640;11.302;2022-10-31T13:23:20;99238.25;;;23.38;82.52
40315;BME280;26021;45.640;11.302;2022-10-31T13:25:52;99214.78;;;23.21;84.61
40315;BME280;26021;45.640;11.302;2022-10-31T13:28:28;99230.81;;;23.17;85.58
40315;BME280;26021;45.640;11.302;2022-10-31T13:30:55;99187.47;;;22.70;87.64
40315;BME280;26021;45.640;11.302;2022-10-31T13:33:48;99220.72;;;23.01;85.57
40315;BME280;26021;45.640;11.302;2022-10-31T13:36:40;99192.00;;;22.48;88.69
40315;BME280;26021;45.640;11.302;2022-10-31T13:44:35;99097.09;;;22.00;89.30
40315;BME280;26021;45.640;11.302;2022-10-31T13:47:24;99187.13;;;22.50;90.42
40315;BME280;26021;45.640;11.302;2022-10-31T13:49:49;99236.94;;;22.62;92.36
40315;BME280;26021;45.640;11.302;2022-10-31T13:52:22;99232.72;;;22.55;93.36
40315;BME280;26021;45.640;11.302;2022-10-31T13:54:50;99236.94;;;22.62;91.19
40315;BME280;26021;45.640;11.302;2022-10-31T13:57:41;99186.88;;;22.23;90.07
40315;BME280;26021;45.640;11.302;2022-10-31T14:02:54;99240.91;;;22.55;91.21
40315;BME280;26021;45.640;11.302;2022-10-31T14:05:28;99241.31;;;22.46;92.15
40315;BME280;26021;45.640;11.302;2022-10-31T14:07:57;99239.13;;;22.32;92.11
40315;BME280;26021;45.640;11.302;2022-10-31T14:10:28;99234.28;;;22.22;92.72
40315;BME280;26021;45.640;11.302;2022-10-31T14:13:06;99240.84;;;22.09;94.94
40315;BME280;26021;45.640;11.302;2022-10-31T14:15:33;99243.81;;;21.96;97.21
40315;BME280;26021;45.640;11.302;2022-10-31T14:18:05;99237.88;;;22.11;96.58
40315;BME280;26021;45.640;11.302;2022-10-31T14:20:41;99234.91;;;22.12;95.19
40315;BME280;26021;45.640;11.302;2022-10-31T14:28:44;99224.91;;;21.78;97.55
40315;BME280;26021;45.640;11.302;2022-10-31T14:31:38;99230.59;;;21.76;98.64
40315;BME280;26021;45.640;11.302;2022-10-31T14:42:49;99236.53;;;21.62;100.00
40315;BME280;26021;45.640;11.302;2022-10-31T14:50:57;99211.38;;;20.78;100.00
40315;BME280;26021;45.640;11.302;2022-10-31T14:55:53;99232.28;;;20.66;100.00
40315;BME280;26021;45.640;11.302;2022-10-31T14:58:43;99215.00;;;20.30;100.00
40315;BME280;26021;45.640;11.302;2022-10-31T15:01:21;99144.16;;;20.02;100.00